Time;durP1;ratioP1;P1;durP2;ratioP2;P2;SDS_P1;SDS_P2;PMS_P1;PMS_P2;Temp;Humidity;BMP_temperature;BMP_pressure;BME280_temperature;BME280_humidity;BME280_pressure;Samples;Min_cycle;Max_cycle;Signal;HPM_P1;HPM_P2
2023/12/26 00:00:48;;;;;;;3.70;2.85;;;;;;;;;;4989410;28;20467;-69
2023/12/26 00:03:14;;;;;;;4.50;2.55;;;;;;;;;;4990270;28;20073;-70
2023/12/26 00:05:40;;;;;;;3.65;2.70;;;;;;;;;;4989358;28;20081;-70
2023/12/26 00:08:07;;;;;;;4.53;2.75;;;;;;;;;;4990654;28;20050;-69
2023/12/26 00:10:33;;;;;;;3.42;2.75;;;9.80;99.90;;;;;;4989210;28;20052;-70
2023/12/26 00:13:03;;;;;;;3.78;2.63;;;;;;;;;;4989930;28;20049;-70
2023/12/26 00:15:30;;;;;;;2.78;2.30;;;;;;;;;;4973570;28;20093;-69
2023/12/26 00:17:56;;;;;;;3.70;2.60;;;;;;;;;;4989568;28;20050;-70
2023/12/26 00:20:22;;;;;;;3.63;2.30;;;;;;;;;;4988713;28;20045;-70
2023/12/26 00:22:48;;;;;;;2.83;2.33;;;;;;;;;;4989917;28;20504;-70
2023/12/26 00:25:14;;;;;;;4.43;2.35;;;10.00;99.90;;;;;;4989669;28;20045;-70
2023/12/26 00:27:40;;;;;;;2.65;2.45;;;;;;;;;;5006744;28;20096;-70
2023/12/26 00:30:08;;;;;;;3.42;2.20;;;;;;;;;;4988571;28;20068;-69
2023/12/26 00:32:34;;;;;;;3.50;2.40;;;;;;;;;;4989584;28;20148;-70
2023/12/26 00:35:00;;;;;;;2.92;2.05;;;;;;;;;;4989053;28;20073;-70
2023/12/26 00:37:26;;;;;;;3.50;1.67;;;;;;;;;;5006524;28;20033;-70
2023/12/26 00:39:53;;;;;;;3.60;2.35;;;;;;;;;;4991177;28;20085;-70
2023/12/26 00:42:19;;;;;;;3.38;1.90;;;;;;;;;;5006341;28;20038;-70
2023/12/26 00:44:45;;;;;;;2.85;1.60;;;;;;;;;;4988507;28;20046;-70
2023/12/26 00:47:11;;;;;;;2.28;1.90;;;;;;;;;;4988997;28;20050;-69
2023/12/26 00:49:37;;;;;;;2.10;1.40;;;;;;;;;;4988380;28;20054;-70
2023/12/26 00:52:04;;;;;;;3.55;1.67;;;;;;;;;;5005363;28;20555;-70
2023/12/26 00:54:30;;;;;;;2.20;1.30;;;;;;;;;;4988352;28;20042;-70
2023/12/26 00:56:56;;;;;;;2.85;1.30;;;;;;;;;;4988953;28;20511;-70
2023/12/26 00:59:22;;;;;;;1.73;1.00;;;;;;;;;;4988215;28;20057;-70
2023/12/26 01:01:48;;;;;;;5.35;1.30;;;;;;;;;;4988690;28;20042;-70
2023/12/26 01:04:14;;;;;;;1.42;1.00;;;;;;;;;;4988405;28;20046;-70
2023/12/26 01:06:40;;;;;;;3.15;1.17;;;;;;;;;;4986991;28;20161;-70
2023/12/26 01:09:06;;;;;;;3.63;1.00;;;;;;;;;;4988357;28;20053;-69
2023/12/26 01:11:32;;;;;;;3.15;1.38;;;;;;;;;;4988003;28;20054;-70
2023/12/26 01:13:58;;;;;;;2.63;1.10;;;;;;;;;;4988710;28;20049;-70
2023/12/26 01:16:27;;;;;;;5.97;1.00;;;;;;;;;;4987978;28;20066;-70
2023/12/26 01:18:53;;;;;;;4.63;1.30;;;;;;;;;;4971793;28;20050;-70
2023/12/26 01:21:19;;;;;;;4.43;0.98;;;;;;;;;;5006217;28;20186;-70
2023/12/26 01:23:45;;;;;;;3.28;1.13;;;10.20;99.90;;;;;;4988407;28;20077;-70
2023/12/26 01:26:11;;;;;;;6.47;1.77;;;;;;;;;;4989236;28;20077;-70
2023/12/26 01:28:37;;;;;;;5.32;1.08;;;;;;;;;;4988485;28;20041;-70
2023/12/26 01:31:03;;;;;;;7.32;1.83;;;;;;;;;;4989063;28;20068;-70
2023/12/26 01:33:29;;;;;;;5.25;1.92;;;;;;;;;;4972292;28;20049;-70
2023/12/26 01:35:57;;;;;;;5.85;1.42;;;10.40;99.90;;;;;;4988159;28;20069;-70
2023/12/26 01:38:23;;;;;;;3.97;1.40;;;;;;;;;;4987782;28;20050;-70
2023/12/26 01:40:49;;;;;;;5.60;1.45;;;;;;;;;;4988439;28;20037;-70
2023/12/26 01:43:15;;;;;;;5.57;1.10;;;;;;;;;;4988324;28;20133;-69
2023/12/26 01:45:41;;;;;;;11.25;1.98;;;;;;;;;;4987950;28;20049;-70
2023/12/26 01:48:08;;;;;;;7.32;2.15;;;;;;;;;;4988263;28;20053;-70
2023/12/26 01:50:35;;;;;;;6.22;1.27;;;;;;;;;;4992445;28;20056;-70
2023/12/26 01:53:01;;;;;;;13.05;1.70;;;;;;;;;;4992343;28;20592;-70
2023/12/26 01:55:28;;;;;;;6.68;1.95;;;;;;;;;;4992262;28;20038;-70
2023/12/26 01:57:56;;;;;;;5.90;1.50;;;;;;;;;;4989768;28;20532;-70
2023/12/26 02:00:23;;;;;;;9.07;1.92;;;;;;;;;;5008874;28;20050;-70
2023/12/26 02:02:50;;;;;;;9.05;1.75;;;;;;;;;;4992416;28;20045;-70
2023/12/26 02:05:16;;;;;;;7.20;1.40;;;;;;;;;;4974533;28;20046;-70
2023/12/26 02:07:42;;;;;;;14.48;2.42;;;;;;;;;;5007204;28;20045;-70
2023/12/26 02:10:08;;;;;;;12.98;2.10;;;;;;;;;;4992011;28;20045;-70
2023/12/26 02:12:35;;;;;;;6.30;1.65;;;;;;;;;;4992825;28;20672;-70
2023/12/26 02:15:01;;;;;;;10.00;1.70;;;;;;;;;;4991189;28;20050;-70
2023/12/26 02:17:29;;;;;;;4.97;1.52;;;;;;;;;;4991182;28;20060;-70
2023/12/26 02:19:55;;;;;;;6.30;1.83;;;;;;;;;;4990773;28;20169;-70
2023/12/26 02:22:21;;;;;;;13.10;2.05;;;;;;;;;;4990995;28;20045;-70
2023/12/26 02:24:48;;;;;;;7.22;1.70;;;;;;;;;;4974432;28;20408;-70
2023/12/26 02:27:22;;;;;;;5.72;1.98;;;;;;;;;;5009411;28;20046;-70
2023/12/26 02:29:49;;;;;;;14.15;2.03;;;;;;;;;;4991285;28;20046;-70
2023/12/26 02:32:18;;;;;;;8.93;2.78;;;;;;;;;;4991025;28;20987;-70
2023/12/26 02:34:45;;;;;;;11.18;2.05;;;;;;;;;;4990871;28;20104;-70
2023/12/26 02:37:11;;;;;;;8.55;1.67;;;;;;;;;;4990081;28;20054;-70
2023/12/26 02:39:39;;;;;;;7.03;1.83;;;;;;;;;;5008087;28;20081;-70
2023/12/26 02:42:05;;;;;;;6.35;1.85;;;;;;;;;;4990991;28;20060;-70
2023/12/26 02:44:31;;;;;;;9.43;3.15;;;;;;;;;;4990592;28;20123;-69
2023/12/26 02:46:57;;;;;;;12.07;2.00;;;;;;;;;;4990034;28;20045;-70
2023/12/26 02:49:23;;;;;;;9.70;2.10;;;10.10;99.90;;;;;;4989703;28;20056;-70
2023/12/26 02:51:49;;;;;;;4.38;1.33;;;;;;;;;;4991132;28;20045;-70
2023/12/26 02:54:15;;;;;;;4.57;1.40;;;;;;;;;;4990476;28;20099;-70
2023/12/26 02:56:41;;;;;;;9.52;2.50;;;;;;;;;;4991459;28;20054;-70
2023/12/26 02:59:07;;;;;;;9.68;2.20;;;;;;;;;;4975276;28;20133;-70
2023/12/26 03:01:33;;;;;;;6.32;1.75;;;;;;;;;;5008572;28;20580;-70
2023/12/26 03:03:59;;;;;;;9.30;2.78;;;;;;;;;;4990469;28;21130;-70
2023/12/26 03:06:25;;;;;;;9.25;2.00;;;;;;;;;;4990412;28;20042;-70
2023/12/26 03:08:51;;;;;;;5.53;1.70;;;;;;;;;;4990830;28;20219;-70
2023/12/26 03:11:18;;;;;;;4.63;1.50;;;;;;;;;;4990702;28;20054;-70
2023/12/26 03:13:44;;;;;;;6.75;1.70;;;;;;;;;;4973393;28;20046;-70
2023/12/26 03:16:10;;;;;;;7.93;1.85;;;;;;;;;;4990809;28;20050;-69
2023/12/26 03:18:36;;;;;;;5.55;1.30;;;;;;;;;;4989810;28;20467;-70
2023/12/26 03:21:02;;;;;;;4.00;1.40;;;;;;;;;;4990488;28;20050;-70
2023/12/26 03:23:29;;;;;;;4.30;1.20;;;;;;;;;;5008022;28;21239;-70
2023/12/26 03:25:55;;;;;;;4.72;1.20;;;;;;;;;;4990610;28;20104;-70
2023/12/26 03:28:21;;;;;;;2.00;1.00;;;;;;;;;;5007541;28;20046;-69
2023/12/26 03:30:47;;;;;;;5.20;1.65;;;;;;;;;;5007648;28;20046;-70
2023/12/26 03:33:13;;;;;;;6.60;1.35;;;;;;;;;;4988323;28;20049;-70
2023/12/26 03:35:39;;;;;;;4.97;1.40;;;;;;;;;;4989480;28;20069;-70
2023/12/26 03:38:05;;;;;;;9.68;1.30;;;;;;;;;;4988987;28;20042;-69
2023/12/26 03:40:31;;;;;;;5.93;1.60;;;;;;;;;;4989710;28;20056;-70
2023/12/26 03:42:58;;;;;;;12.52;3.03;;;;;;;;;;4989584;28;20501;-69
2023/12/26 03:45:26;;;;;;;7.78;1.80;;;;;;;;;;4989070;28;20046;-69
2023/12/26 03:47:53;;;;;;;8.18;2.03;;;;;;;;;;4989652;28;20049;-70
2023/12/26 03:50:19;;;;;;;17.20;2.75;;;;;;;;;;4988801;28;20054;-70
2023/12/26 03:52:45;;;;;;;6.68;1.83;;;;;;;;;;5007229;28;20042;-70
2023/12/26 03:55:13;;;;;;;10.05;1.83;;;;;;;;;;4989493;28;20041;-70
2023/12/26 03:57:41;;;;;;;10.43;2.00;;;;;;;;;;5007799;28;20057;-70
2023/12/26 04:00:08;;;;;;;15.23;3.65;;;;;;;;;;4988024;28;20050;-70
2023/12/26 04:02:34;;;;;;;16.25;3.25;;;;;;;;;;4989720;28;20042;-70
2023/12/26 04:05:02;;;;;;;8.57;1.83;;;;;;;;;;4989749;28;20041;-70
2023/12/26 04:07:28;;;;;;;12.93;2.80;;;;;;;;;;4989914;28;20097;-70
2023/12/26 04:09:54;;;;;;;10.15;2.47;;;;;;;;;;4990611;28;20804;-68
2023/12/26 04:12:20;;;;;;;9.23;2.30;;;;;;;;;;4989020;28;20045;-70
2023/12/26 04:14:46;;;;;;;13.65;2.58;;;;;;;;;;5007147;28;20054;-70
2023/12/26 04:17:12;;;;;;;9.85;2.28;;;;;;;;;;4972950;28;20038;-70
2023/12/26 04:19:38;;;;;;;8.10;2.55;;;;;;;;;;4988840;28;20050;-70
2023/12/26 04:22:04;;;;;;;11.63;2.70;;;;;;;;;;4988858;28;20073;-69
2023/12/26 04:24:31;;;;;;;13.13;2.60;;;;;;;;;;4973104;28;20054;-70
2023/12/26 04:26:57;;;;;;;8.95;2.20;;;;;;;;;;4985360;28;20045;-70
2023/12/26 04:29:24;;;;;;;15.57;2.72;;;8.70;99.90;;;;;;5005385;28;20509;-70
2023/12/26 04:31:50;;;;;;;9.40;2.40;;;;;;;;;;4972884;28;20041;-70
2023/12/26 04:34:16;;;;;;;13.82;2.40;;;;;;;;;;4988476;28;20046;-70
2023/12/26 04:36:42;;;;;;;17.15;2.95;;;;;;;;;;4973079;28;20052;-70
2023/12/26 04:39:08;;;;;;;9.65;2.80;;;;;;;;;;5005244;28;20057;-70
2023/12/26 04:41:34;;;;;;;18.75;4.50;;;;;;;;;;4972201;28;20042;-70
2023/12/26 04:44:01;;;;;;;10.50;2.85;;;;;;;;;;4987068;28;20059;-70
2023/12/26 04:46:27;;;;;;;13.35;2.42;;;;;;;;;;4988323;28;20103;-70
2023/12/26 04:48:53;;;;;;;15.13;2.80;;;;;;;;;;4971563;28;20489;-70
2023/12/26 04:51:20;;;;;;;19.98;2.50;;;;;;;;;;4988089;28;20054;-69
2023/12/26 04:53:46;;;;;;;13.02;2.25;;;;;;;;;;4988228;28;20152;-70
2023/12/26 04:56:16;;;;;;;14.00;2.08;;;;;;;;;;5005340;28;20080;-70
2023/12/26 04:58:42;;;;;;;10.23;1.95;;;;;;;;;;4987891;28;20345;-70
2023/12/26 05:01:08;;;;;;;10.00;2.38;;;;;;;;;;4987625;28;20045;-69
2023/12/26 05:03:34;;;;;;;7.55;2.10;;;;;;;;;;4987688;28;20052;-70
2023/12/26 05:06:00;;;;;;;10.85;2.42;;;;;;;;;;4987581;28;20745;-70
2023/12/26 05:08:26;;;;;;;7.38;2.03;;;;;;;;;;4987476;28;20041;-69
2023/12/26 05:10:52;;;;;;;11.68;2.90;;;;;;;;;;4987714;28;20057;-70
2023/12/26 05:13:18;;;;;;;7.93;1.85;;;;;;;;;;4987336;28;20052;-70
2023/12/26 05:15:45;;;;;;;12.15;2.75;;;;;;;;;;4988181;28;20576;-69
2023/12/26 05:18:11;;;;;;;8.65;2.25;;;;;;;;;;4987634;28;20064;-70
2023/12/26 05:20:38;;;;;;;7.80;2.25;;;;;;;;;;4987675;28;20092;-70
2023/12/26 05:23:04;;;;;;;12.20;2.30;;;;;;;;;;4983761;28;20038;-70
2023/12/26 05:25:30;;;;;;;7.32;2.47;;;;;;;;;;4986910;28;20049;-70
2023/12/26 05:27:56;;;;;;;9.18;2.25;;;;;;;;;;4987037;28;20061;-70
2023/12/26 05:30:22;;;;;;;10.75;1.60;;;;;;;;;;4988441;28;20092;-70
2023/12/26 05:32:48;;;;;;;14.45;2.55;;;;;;;;;;5005266;28;20125;-70
2023/12/26 05:35:14;;;;;;;6.00;2.00;;;;;;;;;;5005568;28;20084;-70
2023/12/26 05:37:41;;;;;;;9.48;2.63;;;;;;;;;;4987317;28;20049;-70
2023/12/26 05:40:07;;;;;;;13.73;2.53;;;;;;;;;;4985559;28;20852;-70
2023/12/26 05:42:33;;;;;;;6.60;1.92;;;;;;;;;;4988441;28;20041;-70
2023/12/26 05:44:59;;;;;;;11.38;1.98;;;;;;;;;;4986738;28;20046;-71
2023/12/26 05:47:25;;;;;;;9.82;2.13;;;;;;;;;;4986916;28;20042;-70
2023/12/26 05:49:53;;;;;;;6.65;1.80;;;;;;;;;;4986042;28;20251;-70
2023/12/26 05:52:19;;;;;;;12.18;2.55;;;;;;;;;;4984925;28;20128;-70
2023/12/26 05:54:45;;;;;;;11.75;1.83;;;;;;;;;;4984791;28;20056;-69
2023/12/26 05:57:11;;;;;;;12.27;3.15;;;;;;;;;;4987900;28;20050;-70
2023/12/26 05:59:37;;;;;;;10.77;2.72;;;;;;;;;;4985596;28;20785;-70
2023/12/26 06:02:03;;;;;;;8.57;2.25;;;;;;;;;;5003668;28;20053;-70
2023/12/26 06:04:29;;;;;;;9.70;2.00;;;;;;;;;;4987386;28;20120;-70
2023/12/26 06:06:55;;;;;;;9.32;2.28;;;;;;;;;;4987919;28;20037;-70
2023/12/26 06:09:21;;;;;;;11.32;2.22;;;;;;;;;;4987418;28;20842;-70
2023/12/26 06:11:47;;;;;;;13.70;2.10;;;;;;;;;;4987588;28;20501;-70
2023/12/26 06:14:13;;;;;;;10.77;2.55;;;;;;;;;;4986226;28;20095;-70
2023/12/26 06:16:39;;;;;;;13.80;2.92;;;;;;;;;;4987794;28;20175;-71
2023/12/26 06:19:05;;;;;;;12.27;2.30;;;;;;;;;;4984427;28;20053;-71
2023/12/26 06:21:31;;;;;;;9.20;2.70;;;;;;;;;;4971564;28;20049;-71
2023/12/26 06:23:57;;;;;;;15.20;2.13;;;;;;;;;;4978544;28;20046;-72
2023/12/26 06:26:24;;;;;;;12.55;2.28;;;;;;;;;;4983238;28;20141;-75
2023/12/26 06:28:50;;;;;;;9.82;2.35;;;;;;;;;;4964158;28;20045;-71
2023/12/26 06:31:16;;;;;;;8.30;1.83;;;;;;;;;;4986253;28;20425;-71
2023/12/26 06:33:42;;;;;;;15.10;2.45;;;;;;;;;;4981018;28;20501;-71
2023/12/26 06:36:08;;;;;;;8.52;1.95;;;;;;;;;;5003212;28;20042;-73
2023/12/26 06:38:34;;;;;;;10.52;3.33;;;;;;;;;;4981247;28;20879;-71
2023/12/26 06:41:02;;;;;;;9.15;2.05;;;;;;;;;;4984554;28;20288;-71
2023/12/26 06:43:28;;;;;;;11.07;2.40;;;;;;;;;;4984777;28;20049;-71
2023/12/26 06:45:55;;;;;;;11.55;2.42;;;;;;;;;;4984400;28;20048;-72
2023/12/26 06:48:21;;;;;;;9.25;2.28;;;;;;;;;;4985281;28;20143;-71
2023/12/26 06:50:47;;;;;;;10.07;2.15;;;;;;;;;;5002284;28;20457;-72
2023/12/26 06:53:13;;;;;;;13.95;3.40;;;;;;;;;;4979559;28;20042;-73
2023/12/26 06:55:42;;;;;;;13.77;2.47;;;;;;;;;;4965927;28;20046;-74
2023/12/26 06:58:18;;;;;;;13.80;2.40;;;;;;;;;;4980049;28;20046;-71
2023/12/26 07:01:13;;;;;;;9.25;2.20;;;;;;;;;;4980033;28;20038;-73
2023/12/26 07:04:16;;;;;;;15.23;2.97;;;;;;;;;;4981279;28;20088;-72
2023/12/26 07:06:50;;;;;;;10.82;2.67;;;;;;;;;;4936673;28;20088;-72
2023/12/26 07:09:19;;;;;;;11.20;2.10;;;;;;;;;;4985842;28;20049;-73
2023/12/26 07:11:45;;;;;;;18.38;2.65;;;;;;;;;;4961570;28;20072;-75
2023/12/26 07:14:11;;;;;;;10.63;2.55;;;;;;;;;;4994170;28;20049;-73
2023/12/26 07:16:37;;;;;;;10.27;3.40;;;;;;;;;;4997538;28;20497;-72
2023/12/26 07:19:03;;;;;;;15.75;3.08;;;;;;;;;;4978996;28;20134;-73
2023/12/26 07:21:30;;;;;;;16.05;2.50;;;;;;;;;;4961120;28;20112;-74
2023/12/26 07:23:56;;;;;;;15.05;2.63;;;;;;;;;;4985030;28;20045;-74
2023/12/26 07:26:22;;;;;;;15.60;2.92;;;;;;;;;;4979076;28;20080;-71
2023/12/26 07:28:49;;;;;;;17.05;2.88;;;;;;;;;;4981327;28;20038;-73
2023/12/26 07:31:20;;;;;;;16.90;4.05;;;;;;;;;;4959425;28;20842;-70
2023/12/26 07:33:52;;;;;;;9.23;1.85;;;;;;;;;;4978992;28;20611;-73
2023/12/26 07:36:18;;;;;;;11.48;2.65;;;;;;;;;;4966942;28;20052;-73
2023/12/26 07:38:45;;;;;;;11.68;3.53;;;;;;;;;;4980611;28;20042;-73
2023/12/26 07:41:11;;;;;;;10.88;2.17;;;;;;;;;;4991928;28;20054;-72
2023/12/26 07:43:37;;;;;;;12.10;2.55;;;;;;;;;;4997498;28;20069;-71
2023/12/26 07:46:06;;;;;;;16.23;3.03;;;;;;;;;;4980211;28;20144;-73
2023/12/26 07:48:32;;;;;;;13.50;2.88;;;;;;;;;;4978509;28;20125;-74
2023/12/26 07:50:58;;;;;;;16.73;2.83;;;;;;;;;;4976729;28;20042;-72
2023/12/26 07:53:24;;;;;;;12.30;3.03;;;;;;;;;;4979249;28;20052;-72
2023/12/26 07:55:54;;;;;;;15.52;3.25;;;;;;;;;;4970491;28;20042;-74
2023/12/26 07:58:20;;;;;;;13.77;3.00;;;;;;;;;;4987740;28;20101;-73
2023/12/26 08:00:48;;;;;;;8.95;2.95;;;;;;;;;;4985462;28;20041;-74
2023/12/26 08:03:17;;;;;;;14.93;2.80;;;;;;;;;;4979249;28;20092;-72
2023/12/26 08:05:44;;;;;;;12.80;2.47;;;;;;;;;;4974502;28;20048;-74
2023/12/26 08:08:11;;;;;;;15.95;3.25;;;;;;;;;;4991476;28;20170;-71
2023/12/26 08:10:38;;;;;;;14.00;2.40;;;;;;;;;;4978742;28;20050;-71
2023/12/26 08:13:04;;;;;;;12.50;3.28;;;;;;;;;;4997125;28;20997;-72
2023/12/26 08:15:30;;;;;;;11.90;2.55;;;;;;;;;;4995537;28;20054;-72
2023/12/26 08:17:57;;;;;;;13.23;3.45;;;;;;;;;;4994594;28;20078;-72
2023/12/26 08:20:23;;;;;;;16.90;3.22;;;;;;;;;;4976510;28;20057;-72
2023/12/26 08:22:49;;;;;;;14.40;3.05;;;;;;;;;;4977948;28;20046;-73
2023/12/26 08:25:16;;;;;;;17.23;3.47;;;;;;;;;;4979077;28;20038;-71
2023/12/26 08:27:43;;;;;;;10.82;3.20;;;;;;;;;;4949148;28;20046;-71
2023/12/26 08:30:09;;;;;;;16.63;3.33;;;;;;;;;;4997751;28;20064;-72
2023/12/26 08:32:35;;;;;;;17.40;3.17;;;;;;;;;;4996649;28;20042;-72
2023/12/26 08:35:01;;;;;;;12.90;2.65;;;;;;;;;;4971826;28;20407;-70
2023/12/26 08:37:27;;;;;;;11.88;3.03;;;;;;;;;;4963782;28;20476;-71
2023/12/26 08:39:54;;;;;;;17.38;2.80;;;;;;;;;;4983037;28;20049;-70
2023/12/26 08:42:21;;;;;;;13.60;2.88;;;;;;;;;;4977677;28;20097;-72
2023/12/26 08:44:47;;;;;;;22.42;3.05;;;;;;;;;;4957590;28;20123;-70
2023/12/26 08:47:13;;;;;;;13.00;4.38;;;;;;;;;;4976898;28;20156;-72
2023/12/26 08:49:39;;;;;;;9.82;3.20;;;;;;;;;;4973840;28;20050;-72
2023/12/26 08:52:05;;;;;;;19.45;3.05;;;;;;;;;;4976115;28;20061;-71
2023/12/26 08:54:31;;;;;;;12.65;3.00;;;;;;;;;;4982361;28;20092;-71
2023/12/26 08:56:57;;;;;;;15.88;2.97;;;;;;;;;;4976016;28;20572;-71
2023/12/26 08:59:25;;;;;;;19.13;3.15;;;;;;;;;;4977240;28;20045;-71
2023/12/26 09:01:51;;;;;;;14.80;3.88;;;;;;;;;;4957338;28;20123;-72
2023/12/26 09:04:17;;;;;;;12.52;2.33;;;;;;;;;;4993523;28;20105;-71
2023/12/26 09:06:43;;;;;;;11.63;3.13;;;;;;;;;;4975453;28;20053;-72
2023/12/26 09:09:09;;;;;;;16.80;2.47;;;;;;;;;;4963044;28;20046;-73
2023/12/26 09:11:36;;;;;;;14.77;2.22;;;;;;;;;;4957121;28;20077;-72
2023/12/26 09:14:02;;;;;;;14.95;2.55;;;;;;;;;;4979287;28;20045;-71
2023/12/26 09:16:28;;;;;;;9.48;2.97;;;;;;;;;;4995605;28;20057;-72
2023/12/26 09:18:54;;;;;;;15.55;2.70;;;;;;;;;;4978665;28;20085;-72
2023/12/26 09:21:20;;;;;;;18.00;3.95;;;;;;;;;;4979127;28;20120;-71
2023/12/26 09:23:46;;;;;;;17.33;3.08;;;;;;;;;;4977205;28;20659;-73
2023/12/26 09:26:14;;;;;;;9.63;3.42;;;;;;;;;;4977889;28;20042;-71
2023/12/26 09:28:40;;;;;;;17.25;3.17;;;;;;;;;;4994868;28;20093;-73
2023/12/26 09:31:06;;;;;;;14.65;3.00;;;;;;;;;;4975598;28;20896;-72
2023/12/26 09:33:32;;;;;;;12.55;3.30;;;;;;;;;;4980984;28;20042;-72
2023/12/26 09:36:36;;;;;;;16.80;3.05;;;;;;;;;;4998979;28;20115;-80
2023/12/26 09:46:25;;;;;;;13.98;3.80;;;;;;;;;;4999478;28;20038;-79
2023/12/26 09:53:13;;;;;;;16.85;2.90;;;;;;;;;;4941500;28;20117;-77
2023/12/26 09:59:51;;;;;;;13.27;2.45;;;;;;;;;;4902406;29;20091;-75
2023/12/26 10:03:05;;;;;;;14.13;3.88;;;;;;;;;;4864856;29;20044;-75
2023/12/26 10:09:32;;;;;;;16.08;3.33;;;;;;;;;;4864645;29;20994;-74
2023/12/26 10:15:38;;;;;;;13.07;2.38;;;;;;;;;;4833498;29;20050;-77
2023/12/26 10:18:57;;;;;;;14.13;2.58;;;;;;;;;;4843319;29;20501;-77
2023/12/26 10:22:00;;;;;;;15.85;3.28;;;;;;;;;;4831112;29;20061;-77
2023/12/26 10:29:27;;;;;;;14.32;3.22;;;;;;;;;;4798476;29;20057;-75
2023/12/26 10:40:08;;;;;;;18.67;3.35;;;;;;;;;;4694695;30;20130;-78
2023/12/26 10:43:38;;;;;;;19.23;3.00;;;;;;;;;;4677295;30;20056;-76
2023/12/26 10:49:44;;;;;;;14.13;2.88;;;;;;;;;;4672797;30;20289;-75
2023/12/26 10:53:15;;;;;;;17.23;3.22;;;;;;;;;;4595339;31;20966;-75
2023/12/26 10:56:31;;;;;;;13.02;2.72;;;;;;;;;;4617683;30;20122;-77
2023/12/26 13:53:30;;;;;;;3.50;1.33;;;;;;;;;;4921599;29;20059;-72
2023/12/26 13:55:56;;;;;;;7.28;1.10;;;;;;;;;;4920907;29;20047;-73
2023/12/26 13:58:22;;;;;;;13.63;1.95;;;;;;;;;;4923697;29;20107;-75
2023/12/26 14:00:49;;;;;;;3.63;1.50;;;;;;;;;;4941050;28;20751;-73
2023/12/26 14:03:15;;;;;;;6.20;1.33;;;;;;;;;;4918415;29;20075;-73
2023/12/26 14:05:41;;;;;;;4.68;1.25;;;;;;;;;;4924507;29;20227;-72
2023/12/26 14:08:07;;;;;;;8.45;1.60;;;;;;;;;;4940371;29;20047;-72
2023/12/26 14:10:42;;;;;;;9.82;1.83;;;;;;;;;;4938698;29;20047;-75
2023/12/26 14:13:12;;;;;;;4.05;1.65;;;;;;;;;;4907969;29;20091;-75
2023/12/26 14:15:42;;;;;;;4.32;1.40;;;;;;;;;;4919440;29;20043;-76
2023/12/26 14:18:13;;;;;;;6.55;1.20;;;;;;;;;;4919675;29;20131;-75
2023/12/26 14:20:42;;;;;;;7.05;1.40;;;;;;;;;;4902213;29;20047;-74
2023/12/26 14:23:11;;;;;;;5.75;1.45;;;;;;;;;;4893056;29;20090;-74
2023/12/26 14:25:41;;;;;;;7.40;1.27;;;;;;;;;;4905772;29;20071;-75
2023/12/26 14:28:08;;;;;;;8.98;1.52;;;;;;;;;;4906327;29;20094;-75
2023/12/26 14:30:35;;;;;;;7.70;1.63;;;;;;;;;;4906185;29;20044;-75
2023/12/26 14:33:08;;;;;;;7.63;1.55;;;;;;;;;;4906633;29;20978;-75
2023/12/26 14:35:38;;;;;;;3.13;1.25;;;;;;;;;;4898340;29;20067;-76
2023/12/26 14:38:08;;;;;;;4.82;1.27;;;;;;;;;;4853110;29;20052;-75
2023/12/26 14:40:43;;;;;;;7.65;1.50;;;;;;;;;;4879244;29;20048;-76
2023/12/26 14:43:19;;;;;;;6.55;1.50;;;;;;;;;;4902375;29;20048;-73
2023/12/26 14:46:01;;;;;;;5.68;1.58;;;;;;;;;;4871130;29;20048;-76
2023/12/26 14:48:28;;;;;;;6.68;1.45;;;;;;;;;;4850246;29;20044;-73
2023/12/26 14:50:54;;;;;;;3.70;1.35;;;;;;;;;;4875661;29;20934;-73
2023/12/26 14:53:44;;;;;;;4.35;1.27;;;;;;;;;;4873784;29;20890;-73
2023/12/26 14:56:11;;;;;;;3.45;1.77;;;;;;;;;;4887353;29;20630;-74
2023/12/26 14:58:37;;;;;;;5.57;1.42;;;;;;;;;;4906874;29;20051;-74
2023/12/26 15:01:03;;;;;;;4.97;1.38;;;;;;;;;;4874267;29;20602;-73
2023/12/26 15:03:29;;;;;;;5.07;1.45;;;;;;;;;;4903382;29;20059;-74
2023/12/26 15:06:15;;;;;;;7.60;1.42;;;;;;;;;;4893504;29;20470;-75
2023/12/26 15:09:22;;;;;;;6.85;1.33;;;;;;;;;;4934682;29;20050;-73
2023/12/26 15:12:29;;;;;;;7.78;1.67;;;;;;;;;;4926801;29;20095;-73
2023/12/26 15:15:09;;;;;;;13.90;1.77;;;;;;;;;;4940541;29;20880;-74
2023/12/26 15:32:24;;;;;;;6.43;1.30;;;;;;;;;;4919801;29;20046;-75
2023/12/26 15:39:47;;;;;;;12.10;3.35;;;;;;;;;;4883448;29;20047;-77
2023/12/26 15:42:47;;;;;;;4.72;1.40;;;;;;;;;;4879500;29;20044;-75
2023/12/26 15:45:38;;;;;;;10.30;1.70;;;;;;;;;;4869728;29;20820;-75
2023/12/26 15:48:52;;;;;;;13.10;2.38;;;;;;;;;;4846451;29;20081;-77
2023/12/26 15:52:06;;;;;;;5.45;2.20;;;;;;;;;;4796037;29;20600;-77
2023/12/26 15:55:04;;;;;;;10.90;1.83;;;;;;;;;;4838075;29;20053;-74
2023/12/26 15:57:34;;;;;;;14.77;2.47;;;;;;;;;;4830183;29;20099;-76
2023/12/26 16:00:00;;;;;;;5.75;2.33;;;;;;;;;;4863186;29;20063;-74
2023/12/26 16:02:27;;;;;;;10.80;2.22;;;;;;;;;;4905838;29;20051;-74
2023/12/26 16:04:55;;;;;;;12.77;2.05;;;;;;;;;;4918141;29;20047;-74
2023/12/26 16:07:21;;;;;;;7.07;2.30;;;;;;;;;;4900901;29;20520;-74
2023/12/26 16:09:47;;;;;;;6.88;1.70;;;;;;;;;;4900191;29;20078;-74
2023/12/26 16:12:13;;;;;;;4.97;1.65;;;;;;;;;;4901253;29;20805;-74
2023/12/26 16:14:39;;;;;;;7.22;3.05;;;;;;;;;;4900361;29;20179;-75
2023/12/26 16:17:05;;;;;;;9.20;2.30;;;;;;;;;;4904510;29;20974;-75
2023/12/26 16:19:31;;;;;;;9.77;2.60;;;;;;;;;;4911402;29;20054;-75
2023/12/26 16:21:58;;;;;;;11.02;2.72;;;;;;;;;;4898020;29;20134;-73
2023/12/26 16:24:24;;;;;;;6.78;1.85;;;;;;;;;;4900530;29;20070;-72
2023/12/26 16:26:50;;;;;;;11.07;2.50;;;;;;;;;;4920149;29;20348;-72
2023/12/26 16:29:18;;;;;;;11.55;2.20;;;;;;;;;;4940181;28;20146;-73
2023/12/26 16:31:46;;;;;;;9.98;2.70;;;;;;;;;;4928362;29;20139;-72
2023/12/26 16:34:30;;;;;;;6.63;1.75;;;;;;;;;;4921473;29;20491;-73
2023/12/26 16:37:21;;;;;;;5.93;2.05;;;;;;;;;;4922143;29;20055;-73
2023/12/26 16:40:13;;;;;;;7.05;2.03;;;;;;;;;;4925896;29;20047;-74
2023/12/26 16:43:07;;;;;;;6.07;1.83;;;;;;;;;;4939338;28;20644;-73
2023/12/26 16:45:33;;;;;;;9.43;2.63;;;;;;;;;;4920988;29;20158;-73
2023/12/26 16:48:00;;;;;;;15.07;2.40;;;;;;;;;;4925226;29;20047;-73
2023/12/26 16:50:26;;;;;;;8.35;1.85;;;;;;;;;;4907266;29;20047;-75
2023/12/26 16:52:53;;;;;;;13.02;2.35;;;;;;;;;;4905675;29;20118;-74
2023/12/26 16:55:19;;;;;;;5.65;1.73;;;;;;;;;;4909419;28;20848;-75
2023/12/26 16:57:45;;;;;;;7.70;1.60;;;;;;;;;;4922910;29;20126;-75
2023/12/26 17:00:12;;;;;;;7.65;3.05;;;;;;;;;;4906602;29;20039;-73
2023/12/26 17:02:38;;;;;;;5.85;1.73;;;;;;;;;;4906845;29;20051;-75
2023/12/26 17:05:29;;;;;;;8.00;3.35;;;;;;;;;;4918718;29;20475;-75
2023/12/26 17:08:21;;;;;;;7.95;1.65;;;;;;;;;;4938758;29;20039;-75
2023/12/26 17:10:48;;;;;;;14.35;3.67;;;;;;;;;;4939576;28;20085;-75
2023/12/26 17:13:26;;;;;;;14.57;2.95;;;;;;;;;;4921736;29;20042;-77
2023/12/26 17:16:18;;;;;;;11.75;2.72;;;;;;;;;;4909890;28;20075;-77
2023/12/26 17:18:44;;;;;;;8.32;2.50;;;;;;;;;;4938338;28;20114;-72
2023/12/26 17:21:10;;;;;;;13.77;2.25;;;;;;;;;;4940337;28;20079;-73
2023/12/26 17:23:37;;;;;;;10.02;2.65;;;;;;;;;;4919299;29;20507;-72
2023/12/26 17:26:03;;;;;;;6.55;1.95;;;;;;;;;;4924063;29;20073;-72
2023/12/26 17:28:29;;;;;;;7.63;2.45;;;;;;;;;;4919901;29;20058;-72
2023/12/26 17:30:55;;;;;;;9.75;2.55;;;;;;;;;;4922588;29;20054;-72
2023/12/26 17:33:21;;;;;;;7.80;2.50;;;;;;;;;;4921548;29;20055;-71
2023/12/26 17:35:47;;;;;;;13.45;3.40;;;;;;;;;;4917499;29;20570;-72
2023/12/26 17:38:14;;;;;;;10.70;2.88;;;;;;;;;;4923398;29;20055;-72
2023/12/26 17:40:40;;;;;;;8.13;2.70;;;;;;;;;;4921592;28;20063;-72
2023/12/26 17:43:06;;;;;;;11.65;2.53;;;;;;;;;;4923751;29;20062;-72
2023/12/26 17:45:32;;;;;;;17.08;2.67;;;;;;;;;;4922464;29;20051;-72
2023/12/26 17:47:58;;;;;;;17.13;2.90;;;;;;;;;;4903282;29;20078;-73
2023/12/26 17:50:24;;;;;;;10.10;2.75;;;;;;;;;;4919068;29;20062;-73
2023/12/26 17:52:50;;;;;;;12.85;2.15;;;;;;;;;;4919142;29;20055;-72
2023/12/26 17:55:16;;;;;;;7.97;2.13;;;;;;;;;;4919978;29;20051;-72
2023/12/26 17:57:42;;;;;;;11.25;2.38;;;;;;;;;;4921991;29;20677;-72
2023/12/26 18:00:09;;;;;;;8.18;2.85;;;;;;;;;;4922210;29;20054;-71
2023/12/26 18:02:35;;;;;;;22.75;3.38;;;;;;;;;;4919316;28;20047;-72
2023/12/26 18:05:01;;;;;;;12.55;2.95;;;;;;;;;;4920600;28;20066;-72
2023/12/26 18:07:27;;;;;;;10.77;2.80;;;;;;;;;;4906365;29;20271;-72
2023/12/26 18:09:53;;;;;;;11.30;2.22;;;;;;;;;;4920943;29;20047;-72
2023/12/26 18:12:19;;;;;;;15.63;2.92;;;;;;;;;;4923040;29;20051;-72
2023/12/26 18:14:45;;;;;;;8.30;2.63;;;;;;;;;;4903132;29;20479;-72
2023/12/26 18:17:12;;;;;;;11.95;2.80;;;;;;;;;;4920857;29;20059;-71
2023/12/26 18:19:38;;;;;;;13.90;2.78;;;;;;;;;;4922563;28;20047;-72
2023/12/26 18:22:04;;;;;;;6.60;1.75;;;;;;;;;;4919713;29;20047;-72
2023/12/26 18:24:31;;;;;;;9.50;2.30;;;;;;;;;;4916814;29;20050;-72
2023/12/26 18:26:57;;;;;;;10.57;1.92;;;;;;;;;;4915360;29;20460;-75
2023/12/26 18:29:27;;;;;;;11.10;2.22;;;;;;;;;;4898788;29;20048;-72
2023/12/26 18:31:53;;;;;;;9.20;2.20;;;;;;;;;;4901342;29;20048;-72
2023/12/26 18:34:20;;;;;;;9.30;2.08;;;;;;;;;;4904143;29;20495;-72
2023/12/26 18:36:46;;;;;;;11.65;2.30;;;;;;;;;;4904117;29;20365;-72
2023/12/26 18:39:12;;;;;;;10.65;2.55;;;;;;;;;;4905955;29;20701;-72
2023/12/26 18:41:43;;;;;;;14.57;2.70;;;;;;;;;;4903438;29;20048;-73